Rowena, Missouri
Current Conditions -  °F | °C
As of 6:54 PM on Wednesday 26 Nov 2014 (Local Time) from KCOU Reporting Station
Light Rain Light Rain  
Wind Chill: 22°   Ceiling: 1300
Heat Index: 34°   Visibility: 10mi
Dew Point: 30°   Wind: 23mph
Humidity: 85%   Direction: 310°NW
Pressure: 30.1"   Gusts: 32mph
Location:  39.2043°N, 92.1568°W
Report Text: KCOU 270054Z 31020G28KT 10SM -RA BKN013 OVC020 01/M01 A3010 RMK AO2 PK WND 30028/0038 RAE24B45UPB24E45 SLP198 P0001 T00111011
Loading
Personal Weather Stations






























Interactive Weather Map New forecast layout! Learn more

10-Day Weather Forecast

Advertisements
Track Severe Weather on mobile